Pallada — UDUI — position and weather

sailwx.info

Track history (hours):
 
Tides and Currents Weather Stations Pressure Air Temp Water Temp Dewpoint Dewpoint Depression Visibility Wind Speed Wind Dir Waves Ship Positions

Pallada

Last reported at 2017-Jul-23 21:55 UTC. Time now 2017-Jul-28 06:32 UTC.
Position N 33°28' E 127°22'.

Length 109 m; draft 7 m.

Type: Sailing vessel. MMSI: 273815200.

Date/timePositionNaut miles runAvg speedWind from/ knotsBaromVisibWave heightAir tempDewpointWater temp
2017-Jul-23 21:55N 33°28' E 127°22'7 4.0
2017-Jul-23 20:13N 33°22' E 127°25'1 3.5
2017-Jul-23 19:55N 33°21' E 127°25'2 3.9
2017-Jul-23 19:29N 33°19' E 127°26'2 4.1
2017-Jul-23 18:58N 33°17' E 127°26'2 3.9
2017-Jul-23 18:30N 33°15' E 127°27'5 3.8
2017-Jul-23 17:06N 33°10' E 127°28'1 4.1
2017-Jul-23 16:57N 33°10' E 127°28'2 3.8
2017-Jul-23 16:27N 33°08' E 127°29'2 3.8
2017-Jul-23 15:58N 33°06' E 127°29'10 4.4
2017-Jul-23 13:36N 32°56' E 127°33'  
2017-Jul-18 07:44N 34°12' E 134°58'14 6.2
2017-Jul-18 05:32N 34°26' E 135°02'0 6.5
2017-Jul-18 05:30N 34°26' E 135°02'3 6.5
2017-Jul-18 05:00N 34°29' E 135°05'4 7.3
2017-Jul-18 04:30N 34°32' E 135°07'4 7.0
2017-Jul-18 04:00N 34°35' E 135°09'3 6.4
2017-Jul-18 03:30N 34°37' E 135°11'3 6.5
2017-Jul-18 03:00N 34°41' E 135°12'0 0.3
2017-Jul-18 02:21N 34°41' E 135°12'0 0.0
2017-Jul-18 01:45N 34°41' E 135°12'0 0.0
2017-Jul-18 01:27N 34°41' E 135°12'0 0.0
2017-Jul-18 00:57N 34°41' E 135°12'0 0.0
2017-Jul-18 00:27N 34°41' E 135°12'0 0.0
2017-Jul-17 23:57N 34°41' E 135°12'0 0.0
2017-Jul-17 23:27N 34°41' E 135°12'0 0.0
2017-Jul-17 22:57N 34°41' E 135°12'0 0.0
2017-Jul-17 22:27N 34°41' E 135°12'0 0.0
2017-Jul-17 21:51N 34°41' E 135°12'0 0.0
2017-Jul-17 21:27N 34°41' E 135°12'0 0.0
2017-Jul-17 20:45N 34°41' E 135°12'0 0.0
2017-Jul-17 20:21N 34°41' E 135°12'0 0.0
2017-Jul-17 19:51N 34°41' E 135°12'0 0.0
2017-Jul-17 19:27N 34°41' E 135°12'0 0.0
2017-Jul-17 18:57N 34°41' E 135°12'0 0.0
2017-Jul-17 18:27N 34°41' E 135°12'0 0.0
2017-Jul-17 17:57N 34°41' E 135°12'0 0.0
2017-Jul-17 17:27N 34°41' E 135°12'0 0.0
2017-Jul-17 16:57N 34°41' E 135°12'0 0.0
2017-Jul-17 16:21N 34°41' E 135°12'0 0.0
2017-Jul-17 15:57N 34°41' E 135°12'0 0.0
2017-Jul-17 15:27N 34°41' E 135°12'0 0.0
2017-Jul-17 14:57N 34°41' E 135°12'0 0.0
2017-Jul-17 14:21N 34°41' E 135°12'0 0.0
2017-Jul-17 13:57N 34°41' E 135°12'0 0.0
2017-Jul-17 13:21N 34°41' E 135°12'0 0.0
2017-Jul-17 12:57N 34°41' E 135°12'0 0.0
2017-Jul-17 12:27N 34°41' E 135°12'0 0.0
2017-Jul-17 11:57N 34°41' E 135°12'0 0.0
2017-Jul-17 11:21N 34°41' E 135°12'0 0.0
2017-Jul-17 10:57N 34°41' E 135°12'0 0.0
2017-Jul-17 10:27N 34°41' E 135°12'0 0.0
2017-Jul-17 09:57N 34°41' E 135°12'0 0.0
2017-Jul-17 09:27N 34°41' E 135°12'0 0.0
2017-Jul-17 08:57N 34°41' E 135°12'0 0.0
2017-Jul-17 08:27N 34°41' E 135°12'0 0.0
2017-Jul-17 07:57N 34°41' E 135°12'0 0.0
2017-Jul-17 07:27N 34°41' E 135°12'0 0.0
2017-Jul-17 06:21N 34°41' E 135°12'0 0.0
2017-Jul-17 05:57N 34°41' E 135°12'0 0.0
2017-Jul-17 05:21N 34°41' E 135°12'0 0.0
2017-Jul-17 04:57N 34°41' E 135°12'0 0.0
2017-Jul-17 04:21N 34°41' E 135°12'0 0.0
2017-Jul-17 03:57N 34°41' E 135°12'0 0.0
2017-Jul-17 03:27N 34°41' E 135°12'0 0.0
2017-Jul-17 02:57N 34°41' E 135°12'0 0.0
2017-Jul-17 02:27N 34°41' E 135°12'0 0.0
2017-Jul-17 01:45N 34°41' E 135°12'0 0.0
2017-Jul-17 01:21N 34°41' E 135°12'0 0.0
2017-Jul-17 00:57N 34°41' E 135°12'0 0.0
2017-Jul-17 00:27N 34°41' E 135°12'0 0.0
2017-Jul-16 23:51N 34°41' E 135°12'0 0.0
2017-Jul-16 23:09N 34°41' E 135°12'0 0.0
2017-Jul-16 22:57N 34°41' E 135°12'0 0.0
2017-Jul-16 22:15N 34°41' E 135°12'0 0.0
2017-Jul-16 21:57N 34°41' E 135°12'0 0.0
2017-Jul-16 21:21N 34°41' E 135°12'0 0.0
2017-Jul-16 20:51N 34°41' E 135°12'0 0.0
2017-Jul-16 20:27N 34°41' E 135°12'0 0.0
2017-Jul-16 19:51N 34°41' E 135°12'0 0.0
2017-Jul-16 19:21N 34°41' E 135°12'0 0.0
2017-Jul-16 18:57N 34°41' E 135°12'0 0.0
2017-Jul-16 18:21N 34°41' E 135°12'0 0.0
2017-Jul-16 17:57N 34°41' E 135°12'0 0.0
2017-Jul-16 17:27N 34°41' E 135°12'0 0.0
2017-Jul-16 16:57N 34°41' E 135°12'0 0.0
2017-Jul-16 16:27N 34°41' E 135°12'0 0.0
2017-Jul-16 15:39N 34°41' E 135°12'0 0.0
2017-Jul-16 15:21N 34°41' E 135°12'0 0.0
2017-Jul-16 14:57N 34°41' E 135°12'0 0.0
2017-Jul-16 14:27N 34°41' E 135°12'0 0.0
2017-Jul-16 13:57N 34°41' E 135°12'0 0.0
2017-Jul-16 13:27N 34°41' E 135°12'0 0.0
2017-Jul-16 12:51N 34°41' E 135°12'0 0.0
2017-Jul-16 12:27N 34°41' E 135°12'0 0.0
2017-Jul-16 11:57N 34°41' E 135°12'0 0.0
2017-Jul-16 11:21N 34°41' E 135°12'0 0.0
2017-Jul-16 10:57N 34°41' E 135°12'0 0.0
2017-Jul-16 10:21N 34°41' E 135°12'0 0.0
2017-Jul-16 09:51N 34°41' E 135°12'0 0.0
2017-Jul-16 09:27N 34°41' E 135°12'0 0.0
2017-Jul-16 08:57N 34°41' E 135°12'0 0.0
2017-Jul-16 08:27N 34°41' E 135°12'0 0.0
2017-Jul-16 07:57N 34°41' E 135°12'0 0.0
2017-Jul-16 07:27N 34°41' E 135°12'0 0.0
2017-Jul-16 06:57N 34°41' E 135°12'0 0.0
2017-Jul-16 06:27N 34°41' E 135°12'0 0.0
2017-Jul-16 05:51N 34°41' E 135°12'0 0.0
2017-Jul-16 05:27N 34°41' E 135°12'0 0.0
2017-Jul-16 04:57N 34°41' E 135°12'0 0.0
2017-Jul-16 04:27N 34°41' E 135°12'0 0.0
2017-Jul-16 03:57N 34°41' E 135°12'0 0.0
2017-Jul-16 03:27N 34°41' E 135°12'0 0.0
2017-Jul-16 02:57N 34°41' E 135°12'0 0.0
2017-Jul-16 02:27N 34°41' E 135°12'0 0.0
2017-Jul-16 01:57N 34°41' E 135°12'0 0.0
2017-Jul-16 01:27N 34°41' E 135°12'0 0.0
2017-Jul-16 00:57N 34°41' E 135°12'0 0.0
2017-Jul-16 00:27N 34°41' E 135°12'0 0.0
2017-Jul-15 23:57N 34°41' E 135°12'0 0.0
2017-Jul-15 23:21N 34°41' E 135°12'0 0.0
2017-Jul-15 22:57N 34°41' E 135°12'0 0.0
2017-Jul-15 22:15N 34°41' E 135°12'0 0.0
2017-Jul-15 21:57N 34°41' E 135°12'0 0.0
2017-Jul-15 21:27N 34°41' E 135°12'0 0.0
2017-Jul-15 20:57N 34°41' E 135°12'0 0.0
2017-Jul-15 20:27N 34°41' E 135°12'0 0.0
2017-Jul-15 19:51N 34°41' E 135°12'0 0.0
2017-Jul-15 19:27N 34°41' E 135°12'0 0.0
2017-Jul-15 18:51N 34°41' E 135°12'0 0.0
2017-Jul-15 18:27N 34°41' E 135°12'0 0.0
2017-Jul-15 17:57N 34°41' E 135°12'0 0.0
2017-Jul-15 17:27N 34°41' E 135°12'0 0.0
2017-Jul-15 16:57N 34°41' E 135°12'0 0.0
2017-Jul-15 16:27N 34°41' E 135°12'0 0.0
2017-Jul-15 15:57N 34°41' E 135°12'0 0.0
2017-Jul-15 15:27N 34°41' E 135°12'0 0.0
2017-Jul-15 14:57N 34°41' E 135°12'0 0.0
2017-Jul-15 13:51N 34°41' E 135°12'0 0.0
2017-Jul-15 13:27N 34°41' E 135°12'0 0.0
2017-Jul-15 12:51N 34°41' E 135°12'0 0.0
2017-Jul-15 12:27N 34°41' E 135°12'0 0.0
2017-Jul-15 11:57N 34°41' E 135°12'0 0.0
2017-Jul-15 11:27N 34°41' E 135°12'0 0.0
2017-Jul-15 10:57N 34°41' E 135°12'0 0.0
2017-Jul-15 10:09N 34°41' E 135°12'0 0.0
2017-Jul-15 09:57N 34°41' E 135°12'0 0.0
2017-Jul-15 09:21N 34°41' E 135°12'0 0.0
2017-Jul-15 08:57N 34°41' E 135°12'0 0.0
2017-Jul-15 08:27N 34°41' E 135°12'0 0.0
2017-Jul-15 07:57N 34°41' E 135°12'0 0.0
2017-Jul-15 07:30N 34°41' E 135°12'0 0.0
2017-Jul-15 07:00N 34°41' E 135°12'1 2.2
2017-Jul-15 06:30N 34°40' E 135°12'3 6.0
2017-Jul-15 06:00N 34°37' E 135°11'3 5.8
2017-Jul-15 05:30N 34°35' E 135°14'2 3.1
2017-Jul-15 05:00N 34°34' E 135°14'2 3.3
2017-Jul-15 04:30N 34°33' E 135°13'2 4.2
2017-Jul-15 04:00N 34°32' E 135°10'2 4.7
2017-Jul-15 03:30N 34°31' E 135°08'2 4.5
2017-Jul-15 03:00N 34°30' E 135°05'2 4.9
2017-Jul-15 02:30N 34°29' E 135°02'2 1.6
2017-Jul-15 01:30N 34°30' E 135°04'4 6.3
2017-Jul-15 00:55N 34°33' E 135°07'3 6.8
2017-Jul-15 00:30N 34°35' E 135°09'3 6.2
2017-Jul-15 00:00N 34°37' E 135°12'0 0.2
2017-Jul-14 23:30N 34°37' E 135°12'0 0.1
2017-Jul-14 22:48N 34°37' E 135°12'0 0.0
2017-Jul-14 22:30N 34°37' E 135°12'0 0.0
2017-Jul-14 22:00N 34°37' E 135°12'0 0.0
2017-Jul-14 21:24N 34°37' E 135°12'0 0.0
2017-Jul-14 21:00N 34°37' E 135°12'0 0.0
2017-Jul-14 20:30N 34°37' E 135°12'0 0.1
2017-Jul-14 20:00N 34°37' E 135°12'0 0.1
2017-Jul-14 19:18N 34°37' E 135°12'0 0.0
2017-Jul-14 19:00N 34°37' E 135°12'0 0.0
2017-Jul-14 18:30N 34°37' E 135°12'0 0.0
2017-Jul-14 18:00N 34°37' E 135°12'0 0.0
2017-Jul-14 17:30N 34°37' E 135°12'0 0.0
2017-Jul-14 17:00N 34°37' E 135°12'0 0.0
2017-Jul-14 16:24N 34°37' E 135°12'0 0.1
2017-Jul-14 16:00N 34°37' E 135°12'0 0.0
2017-Jul-14 15:30N 34°37' E 135°12'0 0.1
2017-Jul-14 15:00N 34°37' E 135°12'0 0.1
2017-Jul-14 14:30N 34°37' E 135°12'0 0.0
2017-Jul-14 14:00N 34°37' E 135°12'0 0.1
2017-Jul-14 13:30N 34°37' E 135°12'0 0.1
2017-Jul-14 13:00N 34°37' E 135°12'0 0.0
2017-Jul-14 12:30N 34°37' E 135°12'0 0.0
2017-Jul-14 12:00N 34°37' E 135°12'0 0.0
2017-Jul-14 11:30N 34°37' E 135°12'0 0.0
2017-Jul-14 11:00N 34°37' E 135°12'0 0.0
2017-Jul-14 10:30N 34°37' E 135°12'0 0.0
2017-Jul-14 09:54N 34°37' E 135°12'0 0.0
2017-Jul-14 09:12N 34°37' E 135°12'0 0.0
2017-Jul-14 09:00N 34°37' E 135°12'0 0.0
2017-Jul-14 08:30N 34°37' E 135°12'0 0.0
2017-Jul-14 07:54N 34°37' E 135°12'0 0.0
2017-Jul-14 07:30N 34°37' E 135°12'0 0.0
2017-Jul-14 06:48N 34°37' E 135°12'0 0.0
2017-Jul-14 06:24N 34°37' E 135°12'0 0.0
2017-Jul-14 06:00N 34°37' E 135°12'0 0.0
2017-Jul-14 05:30N 34°37' E 135°12'0 0.0
2017-Jul-14 05:00N 34°37' E 135°12'0 0.1
2017-Jul-14 04:30N 34°37' E 135°12'0 0.1
2017-Jul-14 03:54N 34°37' E 135°12'0 0.1
2017-Jul-14 03:30N 34°37' E 135°12'0 0.1
2017-Jul-14 02:54N 34°37' E 135°12'0 0.1
2017-Jul-14 02:30N 34°37' E 135°12'1 1.2
2017-Jul-14 02:00N 34°37' E 135°11'2 4.9
2017-Jul-14 01:30N 34°35' E 135°10'4 7.4
2017-Jul-14 00:59N 34°31' E 135°08'17 7.6
2017-Jul-13 22:49N 34°16' E 134°59'2 7.0
2017-Jul-13 22:30N 34°14' E 134°59'3 6.6
2017-Jul-13 22:00N 34°11' E 134°59'  
Track history (hours):
 
Tides and Currents Weather Stations Pressure Air Temp Water Temp Dewpoint Dewpoint Depression Visibility Wind Speed Wind Dir Waves Ship Positions

Pallada

Last reported at 2017-Jul-23 21:55 UTC. Time now 2017-Jul-28 06:32 UTC.
Position N 33°28' E 127°22'.

Length 109 m; draft 7 m.

Type: Sailing vessel. MMSI: 273815200.

Date/timePositionNaut miles runAvg speedWind from/ knotsBaromVisibWave heightAir tempDewpointWater temp
2017-Jul-23 21:55N 33°28' E 127°22'7 4.0
2017-Jul-23 20:13N 33°22' E 127°25'1 3.5
2017-Jul-23 19:55N 33°21' E 127°25'2 3.9
2017-Jul-23 19:29N 33°19' E 127°26'2 4.1
2017-Jul-23 18:58N 33°17' E 127°26'2 3.9
2017-Jul-23 18:30N 33°15' E 127°27'5 3.8
2017-Jul-23 17:06N 33°10' E 127°28'1 4.1
2017-Jul-23 16:57N 33°10' E 127°28'2 3.8
2017-Jul-23 16:27N 33°08' E 127°29'2 3.8
2017-Jul-23 15:58N 33°06' E 127°29'10 4.4
2017-Jul-23 13:36N 32°56' E 127°33'  
2017-Jul-18 07:44N 34°12' E 134°58'14 6.2
2017-Jul-18 05:32N 34°26' E 135°02'0 6.5
2017-Jul-18 05:30N 34°26' E 135°02'3 6.5
2017-Jul-18 05:00N 34°29' E 135°05'4 7.3
2017-Jul-18 04:30N 34°32' E 135°07'4 7.0
2017-Jul-18 04:00N 34°35' E 135°09'3 6.4
2017-Jul-18 03:30N 34°37' E 135°11'3 6.5
2017-Jul-18 03:00N 34°41' E 135°12'0 0.3
2017-Jul-18 02:21N 34°41' E 135°12'0 0.0
2017-Jul-18 01:45N 34°41' E 135°12'0 0.0
2017-Jul-18 01:27N 34°41' E 135°12'0 0.0
2017-Jul-18 00:57N 34°41' E 135°12'0 0.0
2017-Jul-18 00:27N 34°41' E 135°12'0 0.0
2017-Jul-17 23:57N 34°41' E 135°12'0 0.0
2017-Jul-17 23:27N 34°41' E 135°12'0 0.0
2017-Jul-17 22:57N 34°41' E 135°12'0 0.0
2017-Jul-17 22:27N 34°41' E 135°12'0 0.0
2017-Jul-17 21:51N 34°41' E 135°12'0 0.0
2017-Jul-17 21:27N 34°41' E 135°12'0 0.0
2017-Jul-17 20:45N 34°41' E 135°12'0 0.0
2017-Jul-17 20:21N 34°41' E 135°12'0 0.0
2017-Jul-17 19:51N 34°41' E 135°12'0 0.0
2017-Jul-17 19:27N 34°41' E 135°12'0 0.0
2017-Jul-17 18:57N 34°41' E 135°12'0 0.0
2017-Jul-17 18:27N 34°41' E 135°12'0 0.0
2017-Jul-17 17:57N 34°41' E 135°12'0 0.0
2017-Jul-17 17:27N 34°41' E 135°12'0 0.0
2017-Jul-17 16:57N 34°41' E 135°12'0 0.0
2017-Jul-17 16:21N 34°41' E 135°12'0 0.0
2017-Jul-17 15:57N 34°41' E 135°12'0 0.0
2017-Jul-17 15:27N 34°41' E 135°12'0 0.0
2017-Jul-17 14:57N 34°41' E 135°12'0 0.0
2017-Jul-17 14:21N 34°41' E 135°12'0 0.0
2017-Jul-17 13:57N 34°41' E 135°12'0 0.0
2017-Jul-17 13:21N 34°41' E 135°12'0 0.0
2017-Jul-17 12:57N 34°41' E 135°12'0 0.0
2017-Jul-17 12:27N 34°41' E 135°12'0 0.0
2017-Jul-17 11:57N 34°41' E 135°12'0 0.0
2017-Jul-17 11:21N 34°41' E 135°12'0 0.0
2017-Jul-17 10:57N 34°41' E 135°12'0 0.0
2017-Jul-17 10:27N 34°41' E 135°12'0 0.0
2017-Jul-17 09:57N 34°41' E 135°12'0 0.0
2017-Jul-17 09:27N 34°41' E 135°12'0 0.0
2017-Jul-17 08:57N 34°41' E 135°12'0 0.0
2017-Jul-17 08:27N 34°41' E 135°12'0 0.0
2017-Jul-17 07:57N 34°41' E 135°12'0 0.0
2017-Jul-17 07:27N 34°41' E 135°12'0 0.0
2017-Jul-17 06:21N 34°41' E 135°12'0 0.0
2017-Jul-17 05:57N 34°41' E 135°12'0 0.0
2017-Jul-17 05:21N 34°41' E 135°12'0 0.0
2017-Jul-17 04:57N 34°41' E 135°12'0 0.0
2017-Jul-17 04:21N 34°41' E 135°12'0 0.0
2017-Jul-17 03:57N 34°41' E 135°12'0 0.0
2017-Jul-17 03:27N 34°41' E 135°12'0 0.0
2017-Jul-17 02:57N 34°41' E 135°12'0 0.0
2017-Jul-17 02:27N 34°41' E 135°12'0 0.0
2017-Jul-17 01:45N 34°41' E 135°12'0 0.0
2017-Jul-17 01:21N 34°41' E 135°12'0 0.0
2017-Jul-17 00:57N 34°41' E 135°12'0 0.0
2017-Jul-17 00:27N 34°41' E 135°12'0 0.0
2017-Jul-16 23:51N 34°41' E 135°12'0 0.0
2017-Jul-16 23:09N 34°41' E 135°12'0 0.0
2017-Jul-16 22:57N 34°41' E 135°12'0 0.0
2017-Jul-16 22:15N 34°41' E 135°12'0 0.0
2017-Jul-16 21:57N 34°41' E 135°12'0 0.0
2017-Jul-16 21:21N 34°41' E 135°12'0 0.0
2017-Jul-16 20:51N 34°41' E 135°12'0 0.0
2017-Jul-16 20:27N 34°41' E 135°12'0 0.0
2017-Jul-16 19:51N 34°41' E 135°12'0 0.0
2017-Jul-16 19:21N 34°41' E 135°12'0 0.0
2017-Jul-16 18:57N 34°41' E 135°12'0 0.0
2017-Jul-16 18:21N 34°41' E 135°12'0 0.0
2017-Jul-16 17:57N 34°41' E 135°12'0 0.0
2017-Jul-16 17:27N 34°41' E 135°12'0 0.0
2017-Jul-16 16:57N 34°41' E 135°12'0 0.0
2017-Jul-16 16:27N 34°41' E 135°12'0 0.0
2017-Jul-16 15:39N 34°41' E 135°12'0 0.0
2017-Jul-16 15:21N 34°41' E 135°12'0 0.0
2017-Jul-16 14:57N 34°41' E 135°12'0 0.0
2017-Jul-16 14:27N 34°41' E 135°12'0 0.0
2017-Jul-16 13:57N 34°41' E 135°12'0 0.0
2017-Jul-16 13:27N 34°41' E 135°12'0 0.0
2017-Jul-16 12:51N 34°41' E 135°12'0 0.0
2017-Jul-16 12:27N 34°41' E 135°12'0 0.0
2017-Jul-16 11:57N 34°41' E 135°12'0 0.0
2017-Jul-16 11:21N 34°41' E 135°12'0 0.0
2017-Jul-16 10:57N 34°41' E 135°12'0 0.0
2017-Jul-16 10:21N 34°41' E 135°12'0 0.0
2017-Jul-16 09:51N 34°41' E 135°12'0 0.0
2017-Jul-16 09:27N 34°41' E 135°12'0 0.0
2017-Jul-16 08:57N 34°41' E 135°12'0 0.0
2017-Jul-16 08:27N 34°41' E 135°12'0 0.0
2017-Jul-16 07:57N 34°41' E 135°12'0 0.0
2017-Jul-16 07:27N 34°41' E 135°12'0 0.0
2017-Jul-16 06:57N 34°41' E 135°12'0 0.0
2017-Jul-16 06:27N 34°41' E 135°12'0 0.0
2017-Jul-16 05:51N 34°41' E 135°12'0 0.0
2017-Jul-16 05:27N 34°41' E 135°12'0 0.0
2017-Jul-16 04:57N 34°41' E 135°12'0 0.0
2017-Jul-16 04:27N 34°41' E 135°12'0 0.0
2017-Jul-16 03:57N 34°41' E 135°12'0 0.0
2017-Jul-16 03:27N 34°41' E 135°12'0 0.0
2017-Jul-16 02:57N 34°41' E 135°12'0 0.0
2017-Jul-16 02:27N 34°41' E 135°12'0 0.0
2017-Jul-16 01:57N 34°41' E 135°12'0 0.0
2017-Jul-16 01:27N 34°41' E 135°12'0 0.0
2017-Jul-16 00:57N 34°41' E 135°12'0 0.0
2017-Jul-16 00:27N 34°41' E 135°12'0 0.0
2017-Jul-15 23:57N 34°41' E 135°12'0 0.0
2017-Jul-15 23:21N 34°41' E 135°12'0 0.0
2017-Jul-15 22:57N 34°41' E 135°12'0 0.0
2017-Jul-15 22:15N 34°41' E 135°12'0 0.0
2017-Jul-15 21:57N 34°41' E 135°12'0 0.0
2017-Jul-15 21:27N 34°41' E 135°12'0 0.0
2017-Jul-15 20:57N 34°41' E 135°12'0 0.0
2017-Jul-15 20:27N 34°41' E 135°12'0 0.0
2017-Jul-15 19:51N 34°41' E 135°12'0 0.0
2017-Jul-15 19:27N 34°41' E 135°12'0 0.0
2017-Jul-15 18:51N 34°41' E 135°12'0 0.0
2017-Jul-15 18:27N 34°41' E 135°12'0 0.0
2017-Jul-15 17:57N 34°41' E 135°12'0 0.0
2017-Jul-15 17:27N 34°41' E 135°12'0 0.0
2017-Jul-15 16:57N 34°41' E 135°12'0 0.0
2017-Jul-15 16:27N 34°41' E 135°12'0 0.0
2017-Jul-15 15:57N 34°41' E 135°12'0 0.0
2017-Jul-15 15:27N 34°41' E 135°12'0 0.0
2017-Jul-15 14:57N 34°41' E 135°12'0 0.0
2017-Jul-15 13:51N 34°41' E 135°12'0 0.0
2017-Jul-15 13:27N 34°41' E 135°12'0 0.0
2017-Jul-15 12:51N 34°41' E 135°12'0 0.0
2017-Jul-15 12:27N 34°41' E 135°12'0 0.0
2017-Jul-15 11:57N 34°41' E 135°12'0 0.0
2017-Jul-15 11:27N 34°41' E 135°12'0 0.0
2017-Jul-15 10:57N 34°41' E 135°12'0 0.0
2017-Jul-15 10:09N 34°41' E 135°12'0 0.0
2017-Jul-15 09:57N 34°41' E 135°12'0 0.0
2017-Jul-15 09:21N 34°41' E 135°12'0 0.0
2017-Jul-15 08:57N 34°41' E 135°12'0 0.0
2017-Jul-15 08:27N 34°41' E 135°12'0 0.0
2017-Jul-15 07:57N 34°41' E 135°12'0 0.0
2017-Jul-15 07:30N 34°41' E 135°12'0 0.0
2017-Jul-15 07:00N 34°41' E 135°12'1 2.2
2017-Jul-15 06:30N 34°40' E 135°12'3 6.0
2017-Jul-15 06:00N 34°37' E 135°11'3 5.8
2017-Jul-15 05:30N 34°35' E 135°14'2 3.1
2017-Jul-15 05:00N 34°34' E 135°14'2 3.3
2017-Jul-15 04:30N 34°33' E 135°13'2 4.2
2017-Jul-15 04:00N 34°32' E 135°10'2 4.7
2017-Jul-15 03:30N 34°31' E 135°08'2 4.5
2017-Jul-15 03:00N 34°30' E 135°05'2 4.9
2017-Jul-15 02:30N 34°29' E 135°02'2 1.6
2017-Jul-15 01:30N 34°30' E 135°04'4 6.3
2017-Jul-15 00:55N 34°33' E 135°07'3 6.8
2017-Jul-15 00:30N 34°35' E 135°09'3 6.2
2017-Jul-15 00:00N 34°37' E 135°12'0 0.2
2017-Jul-14 23:30N 34°37' E 135°12'0 0.1
2017-Jul-14 22:48N 34°37' E 135°12'0 0.0
2017-Jul-14 22:30N 34°37' E 135°12'0 0.0
2017-Jul-14 22:00N 34°37' E 135°12'0 0.0
2017-Jul-14 21:24N 34°37' E 135°12'0 0.0
2017-Jul-14 21:00N 34°37' E 135°12'0 0.0
2017-Jul-14 20:30N 34°37' E 135°12'0 0.1
2017-Jul-14 20:00N 34°37' E 135°12'0 0.1
2017-Jul-14 19:18N 34°37' E 135°12'0 0.0
2017-Jul-14 19:00N 34°37' E 135°12'0 0.0
2017-Jul-14 18:30N 34°37' E 135°12'0 0.0
2017-Jul-14 18:00N 34°37' E 135°12'0 0.0
2017-Jul-14 17:30N 34°37' E 135°12'0 0.0
2017-Jul-14 17:00N 34°37' E 135°12'0 0.0
2017-Jul-14 16:24N 34°37' E 135°12'0 0.1
2017-Jul-14 16:00N 34°37' E 135°12'0 0.0
2017-Jul-14 15:30N 34°37' E 135°12'0 0.1
2017-Jul-14 15:00N 34°37' E 135°12'0 0.1
2017-Jul-14 14:30N 34°37' E 135°12'0 0.0
2017-Jul-14 14:00N 34°37' E 135°12'0 0.1
2017-Jul-14 13:30N 34°37' E 135°12'0 0.1
2017-Jul-14 13:00N 34°37' E 135°12'0 0.0
2017-Jul-14 12:30N 34°37' E 135°12'0 0.0
2017-Jul-14 12:00N 34°37' E 135°12'0 0.0
2017-Jul-14 11:30N 34°37' E 135°12'0 0.0
2017-Jul-14 11:00N 34°37' E 135°12'0 0.0
2017-Jul-14 10:30N 34°37' E 135°12'0 0.0
2017-Jul-14 09:54N 34°37' E 135°12'0 0.0
2017-Jul-14 09:12N 34°37' E 135°12'0 0.0
2017-Jul-14 09:00N 34°37' E 135°12'0 0.0
2017-Jul-14 08:30N 34°37' E 135°12'0 0.0
2017-Jul-14 07:54N 34°37' E 135°12'0 0.0
2017-Jul-14 07:30N 34°37' E 135°12'0 0.0
2017-Jul-14 06:48N 34°37' E 135°12'0 0.0
2017-Jul-14 06:24N 34°37' E 135°12'0 0.0
2017-Jul-14 06:00N 34°37' E 135°12'0 0.0
2017-Jul-14 05:30N 34°37' E 135°12'0 0.0
2017-Jul-14 05:00N 34°37' E 135°12'0 0.1
2017-Jul-14 04:30N 34°37' E 135°12'0 0.1
2017-Jul-14 03:54N 34°37' E 135°12'0 0.1
2017-Jul-14 03:30N 34°37' E 135°12'0 0.1
2017-Jul-14 02:54N 34°37' E 135°12'0 0.1
2017-Jul-14 02:30N 34°37' E 135°12'1 1.2
2017-Jul-14 02:00N 34°37' E 135°11'2 4.9
2017-Jul-14 01:30N 34°35' E 135°10'4 7.4
2017-Jul-14 00:59N 34°31' E 135°08'17 7.6
2017-Jul-13 22:49N 34°16' E 134°59'2 7.0
2017-Jul-13 22:30N 34°14' E 134°59'3 6.6
2017-Jul-13 22:00N 34°11' E 134°59'  

Dump ship's entire track history